createdAt,value
2023-02-02T00:00:48.857Z,8.13
2023-02-02T00:05:54.295Z,8.14
2023-02-02T00:10:57.268Z,8.07
2023-02-02T00:16:00.149Z,8.11
2023-02-02T00:21:04.610Z,8.09
2023-02-02T00:26:07.425Z,8.07
2023-02-02T00:31:10.440Z,8.07
2023-02-02T00:36:14.756Z,8.00
2023-02-02T00:41:17.846Z,7.91
2023-02-02T00:46:20.965Z,7.93
2023-02-02T00:51:25.196Z,7.91
2023-02-02T00:56:28.087Z,7.93
2023-02-02T01:01:30.918Z,7.86
2023-02-02T01:06:35.284Z,7.84
2023-02-02T01:11:38.370Z,7.80
2023-02-02T01:16:41.212Z,7.78
2023-02-02T01:21:46.256Z,7.81
2023-02-02T01:26:49.194Z,7.84
2023-02-02T01:31:52.299Z,7.89
2023-02-02T01:36:56.558Z,7.89
2023-02-02T01:41:59.411Z,7.82
2023-02-02T01:47:03.878Z,7.80
2023-02-02T01:52:10.091Z,7.77
2023-02-02T01:57:16.022Z,7.76
2023-02-02T02:02:19.247Z,7.76
2023-02-02T02:07:23.837Z,7.79
2023-02-02T02:12:26.883Z,7.72
2023-02-02T02:17:40.888Z,7.77
2023-02-02T02:23:26.729Z,7.74
2023-02-02T02:28:44.054Z,7.69
2023-02-02T02:33:52.678Z,7.72
2023-02-02T02:39:00.265Z,7.75
2023-02-02T02:44:09.654Z,7.72
2023-02-02T02:49:15.363Z,7.74
2023-02-02T02:54:21.022Z,7.78
2023-02-02T02:59:34.173Z,7.75
2023-02-02T03:04:41.805Z,7.79
2023-02-02T03:09:45.501Z,7.83
2023-02-02T03:14:48.330Z,7.81
2023-02-02T03:19:52.547Z,7.84
2023-02-02T03:24:56.938Z,7.83
2023-02-02T03:30:00.016Z,7.86
2023-02-02T03:35:04.461Z,7.86
2023-02-02T03:40:08.222Z,7.89
2023-02-02T03:45:12.005Z,7.94
2023-02-02T03:50:16.198Z,7.96
2023-02-02T03:55:19.092Z,7.98
2023-02-02T04:00:22.555Z,8.03
2023-02-02T04:05:27.877Z,7.99
2023-02-02T04:10:30.722Z,8.05
2023-02-02T04:15:33.551Z,8.06
2023-02-02T04:20:37.746Z,8.13
2023-02-02T04:25:40.559Z,8.16
2023-02-02T04:30:43.512Z,8.11
2023-02-02T04:35:47.780Z,8.17
2023-02-02T04:40:51.039Z,8.12
2023-02-02T04:45:56.599Z,8.21
2023-02-02T04:51:25.259Z,8.11
2023-02-02T04:56:30.750Z,8.19
2023-02-02T05:01:33.594Z,8.20
2023-02-02T05:06:37.879Z,8.23
2023-02-02T05:11:44.499Z,8.21
2023-02-02T05:16:47.358Z,8.24
2023-02-02T05:21:51.660Z,8.19
2023-02-02T05:26:58.556Z,8.19
2023-02-02T05:32:01.561Z,8.21
2023-02-02T05:37:06.284Z,8.21
2023-02-02T05:42:10.207Z,8.17
2023-02-02T05:47:13.097Z,8.15
2023-02-02T05:52:19.293Z,8.14
2023-02-02T05:57:22.095Z,8.10
2023-02-02T06:02:24.928Z,8.09
2023-02-02T06:07:29.158Z,8.03
2023-02-02T06:12:32.000Z,8.03
2023-02-02T06:17:34.898Z,8.04
2023-02-02T06:22:39.048Z,8.03
2023-02-02T06:27:41.913Z,8.01
2023-02-02T06:32:44.738Z,7.94
2023-02-02T06:37:49.172Z,7.96
2023-02-02T06:42:56.960Z,7.94
2023-02-02T06:48:00.902Z,7.96
2023-02-02T06:53:05.567Z,7.97
2023-02-02T06:58:08.414Z,7.94
2023-02-02T07:03:11.183Z,7.94
2023-02-02T07:08:16.943Z,7.96
2023-02-02T07:13:19.800Z,7.94
2023-02-02T07:18:22.911Z,7.99
2023-02-02T07:23:27.142Z,7.99
2023-02-02T07:28:30.079Z,7.90
2023-02-02T07:33:38.671Z,8.01
2023-02-02T07:38:43.059Z,7.95
2023-02-02T07:43:48.133Z,7.98
2023-02-02T07:48:55.676Z,8.06
2023-02-02T07:54:00.106Z,8.01
2023-02-02T07:59:02.924Z,8.03
2023-02-02T08:04:06.043Z,8.05
2023-02-02T08:09:10.979Z,8.02
2023-02-02T08:14:18.254Z,8.04
2023-02-02T08:19:21.153Z,8.06
2023-02-02T08:24:25.450Z,8.09
2023-02-02T08:29:28.263Z,8.05
2023-02-02T08:34:31.224Z,8.22
2023-02-02T08:39:36.098Z,8.28
2023-02-02T08:45:00.683Z,8.26
2023-02-02T08:50:02.106Z,8.30
2023-02-02T08:55:07.181Z,8.42
2023-02-02T09:00:11.792Z,8.52
2023-02-02T09:05:17.414Z,8.65
2023-02-02T09:10:21.785Z,8.69
2023-02-02T09:15:24.881Z,8.80
2023-02-02T09:20:27.965Z,8.82
2023-02-02T09:25:32.543Z,8.81
2023-02-02T09:30:35.497Z,8.79
2023-02-02T09:35:38.312Z,8.83
2023-02-02T09:40:42.707Z,8.98
2023-02-02T09:45:49.937Z,8.95
2023-02-02T09:50:54.427Z,8.99
2023-02-02T09:56:00.674Z,8.94
2023-02-02T10:01:06.376Z,8.89
2023-02-02T10:06:17.604Z,8.94
2023-02-02T10:11:29.294Z,8.98
2023-02-02T10:16:32.486Z,9.00
2023-02-02T10:21:40.988Z,9.10
2023-02-02T10:26:48.432Z,9.16
2023-02-02T10:31:59.908Z,9.20
2023-02-02T10:37:21.518Z,9.19
2023-02-02T10:42:33.619Z,9.32
2023-02-02T10:47:36.731Z,9.32
2023-02-02T10:52:40.991Z,9.33
2023-02-02T10:58:01.727Z,9.44
2023-02-02T11:03:07.159Z,9.38
2023-02-02T11:08:14.606Z,9.31
2023-02-02T11:13:26.814Z,9.35
2023-02-02T11:18:33.657Z,9.39
2023-02-02T11:23:37.367Z,9.32
2023-02-02T11:28:41.697Z,9.26
2023-02-02T11:33:44.540Z,9.35
2023-02-02T11:38:47.433Z,9.44
2023-02-02T11:43:53.821Z,9.51
2023-02-02T11:49:00.783Z,9.38
2023-02-02T11:54:07.014Z,9.38
2023-02-02T11:59:31.624Z,9.38
2023-02-02T12:04:36.033Z,9.44
2023-02-02T12:09:38.920Z,9.35
2023-02-02T12:14:48.678Z,9.28
2023-02-02T12:20:12.922Z,9.38
2023-02-02T12:25:35.609Z,9.31
2023-02-02T12:30:43.872Z,9.31
2023-02-02T12:35:56.795Z,9.27
2023-02-02T12:41:13.969Z,9.20
2023-02-02T12:46:41.678Z,9.23
2023-02-02T12:51:56.705Z,9.19
2023-02-02T12:57:05.042Z,9.10
2023-02-02T13:02:18.387Z,9.06
2023-02-02T13:07:35.638Z,9.02
2023-02-02T13:12:42.144Z,8.93
2023-02-02T13:17:49.992Z,8.89
2023-02-02T13:22:55.543Z,8.82
2023-02-02T13:28:00.036Z,8.79
2023-02-02T13:33:07.324Z,8.69
2023-02-02T13:38:17.106Z,8.63
2023-02-02T13:43:26.631Z,8.54
2023-02-02T13:48:35.805Z,8.48
2023-02-02T13:53:50.653Z,8.38
2023-02-02T13:59:09.890Z,8.30
2023-02-02T14:04:23.181Z,8.33
2023-02-02T14:09:27.523Z,8.32
2023-02-02T14:14:35.166Z,8.31
2023-02-02T14:19:55.935Z,8.34
2023-02-02T14:24:58.794Z,8.33
2023-02-02T14:30:02.181Z,8.33
2023-02-02T14:35:38.558Z,8.38
2023-02-02T14:40:48.690Z,8.36
2023-02-02T14:46:34.165Z,8.33
2023-02-02T14:51:49.775Z,8.34
2023-02-02T14:56:58.042Z,8.28
2023-02-02T15:02:07.586Z,8.32
2023-02-02T15:07:53.844Z,8.30
2023-02-02T15:13:06.546Z,8.34
2023-02-02T15:18:18.331Z,8.37
2023-02-02T15:23:26.684Z,8.35
2023-02-02T15:28:39.308Z,8.41
2023-02-02T15:33:44.196Z,8.43
2023-02-02T15:38:49.451Z,8.55
2023-02-02T15:43:53.679Z,8.55
2023-02-02T15:49:35.183Z,8.61
2023-02-02T15:54:39.120Z,8.59
2023-02-02T15:59:43.967Z,8.56
2023-02-02T16:04:46.852Z,8.57
2023-02-02T16:09:50.018Z,8.57
2023-02-02T16:14:55.380Z,8.67
2023-02-02T16:20:01.845Z,8.67
2023-02-02T16:25:10.963Z,8.67
2023-02-02T16:30:24.848Z,8.68
2023-02-02T16:35:36.789Z,8.66
2023-02-02T16:40:39.742Z,8.60
2023-02-02T16:45:48.105Z,8.56
2023-02-02T16:51:05.185Z,8.60
2023-02-02T16:56:08.830Z,8.71
2023-02-02T17:01:16.655Z,8.72
2023-02-02T17:06:29.595Z,8.76
2023-02-02T17:11:34.137Z,8.77
2023-02-02T17:16:38.360Z,8.81
2023-02-02T17:21:41.133Z,8.81
2023-02-02T17:26:45.065Z,8.92
2023-02-02T17:31:49.334Z,8.91
2023-02-02T17:36:54.150Z,9.00
2023-02-02T17:41:57.054Z,9.01
2023-02-02T17:47:01.163Z,9.13
2023-02-02T17:52:03.944Z,9.13
2023-02-02T17:57:06.734Z,9.13
2023-02-02T18:02:13.602Z,9.13
2023-02-02T18:07:16.371Z,9.14
2023-02-02T18:12:19.827Z,9.18
2023-02-02T18:17:23.999Z,9.16
2023-02-02T18:22:27.053Z,9.14
2023-02-02T18:27:30.288Z,9.15
2023-02-02T18:32:37.375Z,9.16
2023-02-02T18:37:40.283Z,9.17
2023-02-02T18:42:43.108Z,9.15
2023-02-02T18:47:47.354Z,9.25
2023-02-02T18:52:50.108Z,9.27
2023-02-02T18:57:52.868Z,9.27
2023-02-02T19:02:56.966Z,9.22
2023-02-02T19:07:59.792Z,9.20
2023-02-02T19:13:11.802Z,9.20
2023-02-02T19:18:17.639Z,9.16
2023-02-02T19:23:23.143Z,9.21
2023-02-02T19:28:28.204Z,9.29
2023-02-02T19:33:38.927Z,9.35
2023-02-02T19:38:41.988Z,9.36
2023-02-02T19:43:47.747Z,9.35
2023-02-02T19:48:53.844Z,9.36
2023-02-02T19:54:00.199Z,9.36
2023-02-02T19:59:03.048Z,9.37
2023-02-02T20:04:12.246Z,9.36
2023-02-02T20:09:17.377Z,9.38
2023-02-02T20:14:29.408Z,9.47
2023-02-02T20:19:36.893Z,9.51
2023-02-02T20:24:40.761Z,9.45
2023-02-02T20:29:45.036Z,9.37
2023-02-02T20:34:51.142Z,9.32
2023-02-02T20:39:56.711Z,9.37
2023-02-02T20:44:59.505Z,9.38
2023-02-02T20:50:04.111Z,9.37
2023-02-02T20:55:07.673Z,9.35
2023-02-02T21:00:13.562Z,9.39
2023-02-02T21:05:17.940Z,9.36
2023-02-02T21:10:20.783Z,9.33
2023-02-02T21:15:23.618Z,9.27
2023-02-02T21:20:28.144Z,9.25
2023-02-02T21:25:31.086Z,9.20
2023-02-02T21:30:33.929Z,9.18
2023-02-02T21:35:38.134Z,9.14
2023-02-02T21:40:41.495Z,9.12
2023-02-02T21:45:45.387Z,9.14
2023-02-02T21:50:49.554Z,9.05
2023-02-02T21:55:54.775Z,8.94
2023-02-02T22:00:59.705Z,8.90
2023-02-02T22:06:24.177Z,8.99
2023-02-02T22:11:31.137Z,9.10
2023-02-02T22:16:38.474Z,9.09
2023-02-02T22:21:42.603Z,9.16
2023-02-02T22:26:45.379Z,9.15
2023-02-02T22:31:48.726Z,9.14
2023-02-02T22:36:53.042Z,9.19
2023-02-02T22:41:55.852Z,9.16
2023-02-02T22:46:58.672Z,9.01
2023-02-02T22:52:04.381Z,9.03
2023-02-02T22:57:07.223Z,8.95
2023-02-02T23:02:10.057Z,8.97
2023-02-02T23:07:14.214Z,8.99
2023-02-02T23:12:17.042Z,9.00
2023-02-02T23:17:19.851Z,8.85
2023-02-02T23:22:23.985Z,8.74
2023-02-02T23:27:26.777Z,8.70
2023-02-02T23:32:29.728Z,8.69
2023-02-02T23:37:33.886Z,8.82
2023-02-02T23:42:37.484Z,8.90
2023-02-02T23:47:40.443Z,8.85
2023-02-02T23:52:46.247Z,8.94
2023-02-02T23:57:49.027Z,9.00
